Weather at USCG San Diego Heliport

Public forecast

Using degrees Fahrenheit for public forecast. Weather courtesy of forecast.io.

Closest aviation weather report (METAR) to USCG San Diego Heliport

Closest report is San Diego International Airport, 0.6 nm (1.1 km) NW.

2024/07/22 21:51 (retrieved 1 hour ago)

KSAN 222151Z 27007KT 10SM FEW016 SCT050 SCT150 25/19 A2986 RMK AO2 SLP109 T02500189

Closest aviation forecast (TAF) to USCG San Diego Heliport

Closest forecast is San Diego International Airport, 0.6 nm (1.1 km) NW.

2024/07/22 21:46 Ammendment (retrieved 1 hour ago)

TAF AMD KSAN 222044Z 2221/2324 24009KT P6SM SCT250 FM230200 VRB04KT P6SM SCT012 FM230900 VRB04KT P6SM BKN010 FM231700 27006KT P6SM SCT010